createdAt,value
2023-03-29T00:02:38.465Z,1.40
2023-03-29T00:05:27.017Z,1.39
2023-03-29T00:08:02.028Z,1.16
2023-03-29T00:10:46.267Z,1.42
2023-03-29T00:13:31.413Z,1.41
2023-03-29T00:16:09.964Z,1.49
2023-03-29T00:18:46.795Z,1.55
2023-03-29T00:21:24.283Z,1.62
2023-03-29T00:24:01.225Z,1.65
2023-03-29T00:26:54.963Z,1.60
2023-03-29T00:29:35.837Z,1.62
2023-03-29T00:32:14.179Z,1.65
2023-03-29T00:34:54.337Z,1.70
2023-03-29T00:37:39.579Z,1.53
2023-03-29T00:40:21.714Z,1.49
2023-03-29T00:42:58.378Z,1.19
2023-03-29T00:45:55.624Z,1.28
2023-03-29T00:48:37.158Z,1.15
2023-03-29T00:51:25.358Z,1.25
2023-03-29T00:54:10.705Z,1.35
2023-03-29T00:57:03.648Z,1.37
2023-03-29T00:59:41.349Z,1.40
2023-03-29T01:02:43.650Z,1.38
2023-03-29T01:05:27.250Z,1.43
2023-03-29T01:08:17.161Z,1.44
2023-03-29T01:11:03.509Z,1.37
2023-03-29T01:13:45.131Z,1.37
2023-03-29T01:16:37.210Z,1.36
2023-03-29T01:19:22.396Z,1.45
2023-03-29T01:22:13.525Z,1.48
2023-03-29T01:25:15.179Z,1.42
2023-03-29T01:27:51.433Z,1.29
2023-03-29T01:30:31.900Z,1.11
2023-03-29T01:33:23.536Z,1.05
2023-03-29T01:36:08.619Z,1.12
2023-03-29T01:38:50.543Z,1.15
2023-03-29T01:41:27.211Z,1.17
2023-03-29T01:44:14.404Z,1.16
2023-03-29T01:47:06.614Z,1.15
2023-03-29T01:49:58.784Z,1.16
2023-03-29T01:52:53.780Z,1.11
2023-03-29T01:55:39.660Z,1.08
2023-03-29T01:58:23.382Z,1.35
2023-03-29T02:01:21.700Z,1.38
2023-03-29T02:04:13.491Z,1.31
2023-03-29T02:06:54.461Z,1.43
2023-03-29T02:09:30.953Z,1.43
2023-03-29T02:12:17.325Z,1.38
2023-03-29T02:14:52.077Z,1.20
2023-03-29T02:17:40.328Z,1.24
2023-03-29T02:20:29.689Z,1.22
2023-03-29T02:23:16.242Z,1.17
2023-03-29T02:26:03.737Z,1.08
2023-03-29T02:28:51.917Z,0.83
2023-03-29T02:31:36.573Z,0.92
2023-03-29T02:34:25.634Z,0.90
2023-03-29T02:37:07.047Z,0.85
2023-03-29T02:39:42.340Z,0.90
2023-03-29T02:42:25.218Z,0.85
2023-03-29T02:45:06.940Z,0.85
2023-03-29T02:47:47.234Z,0.85
2023-03-29T02:50:29.175Z,0.85
2023-03-29T02:53:19.886Z,0.78
2023-03-29T02:55:58.735Z,0.75
2023-03-29T02:58:39.181Z,0.78
2023-03-29T03:01:23.284Z,0.76
2023-03-29T03:04:05.853Z,0.56
2023-03-29T03:07:00.162Z,0.74
2023-03-29T03:09:55.083Z,0.75
2023-03-29T03:12:44.949Z,0.86
2023-03-29T03:15:27.244Z,0.91
2023-03-29T03:18:14.619Z,0.95
2023-03-29T03:24:03.991Z,0.85
2023-03-29T03:26:52.171Z,0.97
2023-03-29T03:29:29.479Z,0.90
2023-03-29T03:32:24.383Z,1.03
2023-03-29T03:35:32.913Z,1.01
2023-03-29T03:38:14.972Z,1.09
2023-03-29T03:41:01.463Z,1.13
2023-03-29T03:43:44.044Z,1.18
2023-03-29T03:46:33.539Z,1.12
2023-03-29T03:49:14.980Z,1.10
2023-03-29T03:51:55.364Z,1.08
2023-03-29T03:54:38.134Z,0.95
2023-03-29T03:57:35.838Z,0.86
2023-03-29T04:00:23.048Z,0.84
2023-03-29T04:03:20.985Z,0.80
2023-03-29T04:06:00.257Z,0.72
2023-03-29T04:08:45.597Z,0.67
2023-03-29T04:11:40.341Z,0.81
2023-03-29T04:14:14.248Z,0.69
2023-03-29T04:17:11.452Z,0.72
2023-03-29T04:20:10.526Z,0.68
2023-03-29T04:22:55.175Z,0.60
2023-03-29T04:25:41.972Z,0.60
2023-03-29T04:28:43.329Z,0.52
2023-03-29T04:31:45.412Z,0.54
2023-03-29T04:34:28.916Z,0.52
2023-03-29T04:37:10.323Z,0.58
2023-03-29T04:40:01.717Z,0.60
2023-03-29T04:42:45.218Z,0.37
2023-03-29T04:45:25.181Z,0.48
2023-03-29T04:48:39.326Z,0.45
2023-03-29T04:51:23.077Z,0.52
2023-03-29T04:54:15.802Z,0.43
2023-03-29T04:57:17.816Z,0.44
2023-03-29T05:00:40.390Z,0.77
2023-03-29T05:03:25.403Z,0.91
2023-03-29T05:06:21.976Z,0.84
2023-03-29T05:09:00.539Z,1.11
2023-03-29T05:12:00.361Z,1.23
2023-03-29T05:14:38.694Z,1.27
2023-03-29T05:17:17.839Z,1.44
2023-03-29T05:19:55.721Z,1.49
2023-03-29T05:22:38.430Z,1.56
2023-03-29T05:25:30.316Z,1.58
2023-03-29T05:28:09.958Z,1.62
2023-03-29T05:30:49.955Z,1.68
2023-03-29T05:33:30.963Z,1.67
2023-03-29T05:36:15.270Z,1.69
2023-03-29T05:38:59.141Z,1.81
2023-03-29T05:41:39.878Z,1.72
2023-03-29T05:44:44.921Z,1.94
2023-03-29T05:47:38.257Z,1.99
2023-03-29T05:50:34.522Z,2.00
2023-03-29T05:56:07.276Z,2.11
2023-03-29T05:58:56.993Z,2.22
2023-03-29T06:01:32.627Z,2.27
2023-03-29T06:04:21.630Z,2.46
2023-03-29T06:07:18.577Z,2.53
2023-03-29T06:10:15.412Z,2.63
2023-03-29T06:12:59.191Z,2.75
2023-03-29T06:15:39.691Z,2.85
2023-03-29T06:18:21.775Z,2.92
2023-03-29T06:21:02.362Z,3.02
2023-03-29T06:23:39.473Z,3.19
2023-03-29T06:26:27.618Z,3.04
2023-03-29T06:29:20.132Z,3.24
2023-03-29T06:31:58.431Z,3.53
2023-03-29T06:35:13.035Z,3.70
2023-03-29T06:37:53.963Z,3.70
2023-03-29T06:40:54.286Z,3.79
2023-03-29T06:43:42.391Z,3.70
2023-03-29T06:46:31.975Z,3.83
2023-03-29T06:49:20.612Z,3.87
2023-03-29T06:52:29.129Z,4.03
2023-03-29T06:55:11.168Z,4.00
2023-03-29T06:58:08.862Z,4.24
2023-03-29T07:01:28.745Z,4.37
2023-03-29T07:04:54.475Z,4.21
2023-03-29T07:07:58.605Z,4.22
2023-03-29T07:10:56.056Z,4.26
2023-03-29T07:13:36.236Z,4.26
2023-03-29T07:16:25.003Z,4.35
2023-03-29T07:19:29.122Z,4.44
2023-03-29T07:22:07.775Z,4.56
2023-03-29T07:24:57.355Z,4.79
2023-03-29T07:27:35.106Z,4.88
2023-03-29T07:30:19.106Z,4.61
2023-03-29T07:32:58.661Z,4.95
2023-03-29T07:36:00.425Z,4.95
2023-03-29T07:38:44.797Z,5.05
2023-03-29T07:41:31.298Z,5.05
2023-03-29T07:44:21.893Z,5.13
2023-03-29T07:47:02.065Z,5.16
2023-03-29T07:49:39.335Z,5.29
2023-03-29T07:52:20.041Z,5.20
2023-03-29T07:55:06.407Z,5.39
2023-03-29T07:58:25.605Z,5.53
2023-03-29T08:01:12.260Z,5.57
2023-03-29T08:04:31.671Z,5.46
2023-03-29T08:07:35.133Z,5.62
2023-03-29T08:10:37.065Z,5.60
2023-03-29T08:13:28.394Z,5.87
2023-03-29T08:16:22.360Z,5.76
2023-03-29T08:19:08.091Z,5.85
2023-03-29T08:22:21.427Z,6.08
2023-03-29T08:25:29.293Z,5.98
2023-03-29T08:28:09.876Z,6.07
2023-03-29T08:30:55.957Z,6.35
2023-03-29T08:33:52.896Z,6.53
2023-03-29T08:36:55.213Z,6.53
2023-03-29T08:39:51.358Z,6.75
2023-03-29T08:43:11.690Z,6.79
2023-03-29T08:46:34.277Z,6.71
2023-03-29T08:49:23.313Z,6.81
2023-03-29T08:52:30.733Z,6.87
2023-03-29T08:55:25.936Z,6.96
2023-03-29T08:58:31.679Z,7.17
2023-03-29T09:01:15.026Z,7.09
2023-03-29T09:04:13.488Z,7.17
2023-03-29T09:07:06.716Z,7.00
2023-03-29T09:09:48.687Z,7.09
2023-03-29T09:12:55.523Z,7.22
2023-03-29T09:15:54.320Z,7.45
2023-03-29T09:19:03.267Z,7.48
2023-03-29T09:22:13.861Z,7.63
2023-03-29T09:25:10.703Z,7.75
2023-03-29T09:27:54.933Z,7.82
2023-03-29T09:30:57.382Z,8.09
2023-03-29T09:34:00.186Z,8.22
2023-03-29T09:37:06.864Z,8.21
2023-03-29T09:40:00.875Z,8.28
2023-03-29T09:43:02.018Z,8.27
2023-03-29T09:45:48.477Z,8.40
2023-03-29T09:48:32.615Z,8.57
2023-03-29T09:51:18.224Z,8.51
2023-03-29T09:54:19.975Z,8.72
2023-03-29T09:57:25.492Z,8.73
2023-03-29T10:00:07.398Z,8.56
2023-03-29T10:02:57.759Z,8.58
2023-03-29T10:05:56.838Z,8.59
2023-03-29T10:08:36.321Z,8.79
2023-03-29T10:11:24.262Z,8.93
2023-03-29T10:14:05.019Z,9.04
2023-03-29T10:16:49.539Z,8.98
2023-03-29T10:19:33.564Z,9.00
2023-03-29T10:22:24.314Z,9.02
2023-03-29T10:25:08.646Z,8.89
2023-03-29T10:27:56.544Z,9.36
2023-03-29T10:30:38.969Z,9.50
2023-03-29T10:33:39.685Z,9.72
2023-03-29T10:36:25.526Z,9.80
2023-03-29T10:39:11.487Z,9.77
2023-03-29T10:41:52.746Z,9.94
2023-03-29T10:44:36.915Z,9.98
2023-03-29T10:47:31.037Z,9.73
2023-03-29T10:50:20.644Z,9.76
2023-03-29T10:52:55.206Z,9.92
2023-03-29T10:55:39.800Z,10.02
2023-03-29T10:58:30.490Z,10.05
2023-03-29T11:01:22.419Z,10.31
2023-03-29T11:04:13.144Z,10.55
2023-03-29T11:07:02.678Z,10.69
2023-03-29T11:10:19.391Z,10.97
2023-03-29T11:13:05.532Z,10.86
2023-03-29T11:16:21.479Z,11.17
2023-03-29T11:19:39.297Z,11.31
2023-03-29T11:22:36.930Z,11.13
2023-03-29T11:25:30.981Z,11.32
2023-03-29T11:28:19.280Z,11.49
2023-03-29T11:31:12.061Z,11.57
2023-03-29T11:33:58.823Z,11.70
2023-03-29T11:36:56.134Z,11.89
2023-03-29T11:40:00.949Z,11.97
2023-03-29T11:42:44.191Z,12.07
2023-03-29T11:45:37.115Z,12.05
2023-03-29T11:48:24.189Z,12.07
2023-03-29T11:51:10.562Z,12.15
2023-03-29T11:53:59.690Z,12.24
2023-03-29T11:56:37.370Z,12.30
2023-03-29T11:59:20.052Z,12.11
2023-03-29T12:02:06.426Z,12.14
2023-03-29T12:05:04.340Z,12.07
2023-03-29T12:07:48.017Z,11.70
2023-03-29T12:10:29.242Z,11.36
2023-03-29T12:13:16.325Z,11.34
2023-03-29T12:16:01.368Z,11.29
2023-03-29T12:18:47.592Z,11.22
2023-03-29T12:21:26.964Z,11.24
2023-03-29T12:24:03.579Z,11.37
2023-03-29T12:27:08.567Z,11.50
2023-03-29T12:29:55.901Z,11.46
2023-03-29T12:32:52.646Z,11.42
2023-03-29T12:36:34.177Z,11.29
2023-03-29T12:40:05.588Z,11.50
2023-03-29T12:43:08.986Z,11.68
2023-03-29T12:46:13.924Z,11.57
2023-03-29T12:48:48.460Z,11.47
2023-03-29T12:51:43.934Z,11.49
2023-03-29T12:54:33.247Z,11.46
2023-03-29T12:57:29.230Z,11.42
2023-03-29T13:00:17.629Z,11.31
2023-03-29T13:03:10.956Z,11.33
2023-03-29T13:05:47.353Z,11.55
2023-03-29T13:08:44.749Z,11.85
2023-03-29T13:11:35.593Z,12.15
2023-03-29T13:14:18.648Z,12.21
2023-03-29T13:17:18.507Z,12.38
2023-03-29T13:20:07.205Z,12.61
2023-03-29T13:22:57.745Z,12.57
2023-03-29T13:26:06.707Z,12.49
2023-03-29T13:29:01.632Z,12.75
2023-03-29T13:31:46.789Z,12.77
2023-03-29T13:34:39.979Z,13.11
2023-03-29T13:37:32.334Z,13.17
2023-03-29T13:40:32.073Z,13.20
2023-03-29T13:43:19.706Z,13.44
2023-03-29T13:46:29.475Z,13.55
2023-03-29T13:49:18.110Z,13.27
2023-03-29T13:52:17.212Z,13.24
2023-03-29T13:55:05.968Z,13.26
2023-03-29T13:57:55.094Z,13.15
2023-03-29T14:00:50.632Z,13.20
2023-03-29T14:03:31.958Z,13.09
2023-03-29T14:06:16.010Z,13.00
2023-03-29T14:08:55.220Z,12.87
2023-03-29T14:11:34.864Z,12.74
2023-03-29T14:14:14.151Z,12.81
2023-03-29T14:16:50.055Z,12.94
2023-03-29T14:19:37.184Z,12.84
2023-03-29T14:22:28.454Z,12.96
2023-03-29T14:25:16.843Z,13.02
2023-03-29T14:27:48.863Z,13.12
2023-03-29T14:30:35.419Z,13.19
2023-03-29T14:33:29.677Z,12.99
2023-03-29T14:36:10.987Z,12.72
2023-03-29T14:38:53.585Z,12.90
2023-03-29T14:41:34.364Z,12.71
2023-03-29T14:44:13.374Z,12.60
2023-03-29T14:47:00.749Z,12.60
2023-03-29T14:49:42.137Z,12.50
2023-03-29T14:52:25.751Z,12.60
2023-03-29T14:55:10.141Z,12.64
2023-03-29T14:57:48.303Z,12.60
2023-03-29T15:00:42.621Z,12.41
2023-03-29T15:03:36.330Z,12.34
2023-03-29T15:06:21.101Z,12.41
2023-03-29T15:09:05.025Z,12.55
2023-03-29T15:11:44.219Z,12.58
2023-03-29T15:14:23.747Z,12.61
2023-03-29T15:17:10.273Z,12.63
2023-03-29T15:19:50.077Z,12.72
2023-03-29T15:22:27.856Z,12.75
2023-03-29T15:25:05.369Z,12.84
2023-03-29T15:28:01.546Z,12.75
2023-03-29T15:30:40.395Z,12.73
2023-03-29T15:33:23.208Z,12.76
2023-03-29T15:36:20.601Z,12.56
2023-03-29T15:39:04.739Z,12.53
2023-03-29T15:41:41.897Z,12.41
2023-03-29T15:44:19.753Z,12.42
2023-03-29T15:46:56.545Z,12.34
2023-03-29T15:49:37.669Z,12.24
2023-03-29T15:52:17.749Z,12.26
2023-03-29T15:54:58.891Z,12.26
2023-03-29T15:57:50.544Z,12.31
2023-03-29T16:00:31.622Z,12.34
2023-03-29T16:03:11.002Z,12.31
2023-03-29T16:05:52.028Z,12.39
2023-03-29T16:08:34.842Z,12.35
2023-03-29T16:11:15.212Z,12.41
2023-03-29T16:14:00.028Z,12.50
2023-03-29T16:16:37.160Z,12.32
2023-03-29T16:19:11.268Z,12.42
2023-03-29T16:21:48.340Z,12.08
2023-03-29T16:24:29.716Z,12.38
2023-03-29T16:27:13.300Z,12.36
2023-03-29T16:29:55.600Z,12.34
2023-03-29T16:32:34.906Z,12.33
2023-03-29T16:35:14.162Z,12.33
2023-03-29T16:37:54.762Z,12.30
2023-03-29T16:40:33.133Z,12.28
2023-03-29T16:43:22.275Z,12.23
2023-03-29T16:46:01.762Z,12.25
2023-03-29T16:48:42.353Z,12.21
2023-03-29T16:51:20.768Z,12.16
2023-03-29T16:54:02.638Z,12.14
2023-03-29T16:56:41.328Z,12.09
2023-03-29T16:59:39.279Z,12.04
2023-03-29T17:02:32.979Z,11.98
2023-03-29T17:05:18.269Z,11.86
2023-03-29T17:07:59.085Z,11.82
2023-03-29T17:10:42.001Z,11.76
2023-03-29T17:13:17.375Z,11.72
2023-03-29T17:16:05.421Z,11.74
2023-03-29T17:18:39.698Z,11.73
2023-03-29T17:21:20.054Z,11.72
2023-03-29T17:24:03.521Z,11.69
2023-03-29T17:26:38.257Z,11.68
2023-03-29T17:29:26.886Z,11.64
2023-03-29T17:32:05.032Z,11.61
2023-03-29T17:34:49.666Z,11.46
2023-03-29T17:37:34.404Z,11.56
2023-03-29T17:40:26.026Z,11.57
2023-03-29T17:43:15.810Z,11.56
2023-03-29T17:45:55.281Z,11.51
2023-03-29T17:48:41.263Z,11.47
2023-03-29T17:51:15.173Z,11.43
2023-03-29T17:54:02.404Z,11.40
2023-03-29T17:56:44.816Z,11.36
2023-03-29T17:59:21.074Z,11.33
2023-03-29T18:02:10.050Z,11.31
2023-03-29T18:04:55.175Z,11.28
2023-03-29T18:07:33.930Z,11.20
2023-03-29T18:10:27.401Z,11.08
2023-03-29T18:13:04.584Z,11.06
2023-03-29T18:15:55.057Z,10.96
2023-03-29T18:18:42.021Z,10.94
2023-03-29T18:21:23.699Z,10.90
2023-03-29T18:24:05.742Z,10.85
2023-03-29T18:26:51.938Z,10.76
2023-03-29T18:29:33.022Z,10.82
2023-03-29T18:32:13.785Z,10.81
2023-03-29T18:34:54.531Z,10.82
2023-03-29T18:37:32.842Z,10.81
2023-03-29T18:40:17.313Z,10.76
2023-03-29T18:43:17.795Z,10.77
2023-03-29T18:45:55.799Z,10.76
2023-03-29T18:48:37.410Z,10.74
2023-03-29T18:51:25.785Z,10.75
2023-03-29T18:54:12.633Z,10.78
2023-03-29T18:56:56.051Z,10.79
2023-03-29T18:59:51.323Z,10.77
2023-03-29T19:02:33.768Z,10.71
2023-03-29T19:05:14.176Z,10.80
2023-03-29T19:08:04.853Z,10.85
2023-03-29T19:10:53.974Z,10.82
2023-03-29T19:13:28.027Z,10.83
2023-03-29T19:16:14.654Z,10.87
2023-03-29T19:18:50.971Z,10.87
2023-03-29T19:21:25.201Z,10.87
2023-03-29T19:24:07.967Z,10.82
2023-03-29T19:26:56.937Z,10.88
2023-03-29T19:29:37.352Z,10.85
2023-03-29T19:32:25.161Z,10.85
2023-03-29T19:35:08.151Z,10.75
2023-03-29T19:37:45.094Z,10.78
2023-03-29T19:40:22.756Z,10.72
2023-03-29T19:43:04.673Z,10.67
2023-03-29T19:45:43.357Z,10.53
2023-03-29T19:48:25.333Z,10.51
2023-03-29T19:51:06.054Z,10.62
2023-03-29T19:53:47.580Z,10.60
2023-03-29T19:56:38.756Z,10.63
2023-03-29T19:59:34.308Z,10.58
2023-03-29T20:02:14.824Z,10.55
2023-03-29T20:04:52.582Z,10.55
2023-03-29T20:07:29.879Z,10.32
2023-03-29T20:10:12.162Z,10.53
2023-03-29T20:12:57.731Z,10.53
2023-03-29T20:15:40.694Z,10.50
2023-03-29T20:18:24.834Z,10.52
2023-03-29T20:21:02.320Z,10.50
2023-03-29T20:23:40.557Z,10.55
2023-03-29T20:26:12.843Z,10.54
2023-03-29T20:28:46.010Z,10.59
2023-03-29T20:31:25.556Z,10.53
2023-03-29T20:34:09.655Z,10.60
2023-03-29T20:36:47.559Z,10.53
2023-03-29T20:39:28.412Z,10.57
2023-03-29T20:42:09.827Z,10.60
2023-03-29T20:44:52.553Z,10.50
2023-03-29T20:47:48.357Z,10.57
2023-03-29T20:50:40.286Z,10.54
2023-03-29T20:53:22.368Z,10.37
2023-03-29T20:55:59.574Z,10.55
2023-03-29T20:58:31.375Z,10.52
2023-03-29T21:01:08.159Z,10.53
2023-03-29T21:03:55.853Z,10.52
2023-03-29T21:06:48.390Z,10.47
2023-03-29T21:09:30.881Z,10.55
2023-03-29T21:12:12.227Z,10.57
2023-03-29T21:18:12.752Z,10.52
2023-03-29T21:20:54.038Z,10.55
2023-03-29T21:23:34.718Z,10.51
2023-03-29T21:26:13.600Z,10.46
2023-03-29T21:28:58.071Z,10.45
2023-03-29T21:31:41.661Z,10.39
2023-03-29T21:34:20.586Z,10.39
2023-03-29T21:37:03.530Z,10.35
2023-03-29T21:39:45.770Z,10.32
2023-03-29T21:42:30.462Z,10.23
2023-03-29T21:45:12.147Z,10.20
2023-03-29T21:48:02.775Z,10.19
2023-03-29T21:50:45.730Z,10.14
2023-03-29T21:53:25.909Z,10.19
2023-03-29T21:56:12.539Z,10.21
2023-03-29T21:58:51.514Z,10.21
2023-03-29T22:01:30.628Z,10.21
2023-03-29T22:04:25.516Z,10.24
2023-03-29T22:07:24.312Z,10.22
2023-03-29T22:10:11.317Z,10.22
2023-03-29T22:12:49.278Z,10.19
2023-03-29T22:15:30.664Z,10.24
2023-03-29T22:18:06.406Z,10.23
2023-03-29T22:20:47.923Z,10.29
2023-03-29T22:23:31.757Z,10.28
2023-03-29T22:26:19.870Z,10.27
2023-03-29T22:29:12.989Z,10.27
2023-03-29T22:31:53.796Z,10.26
2023-03-29T22:34:30.129Z,10.30
2023-03-29T22:37:18.157Z,10.28
2023-03-29T22:39:56.231Z,10.27
2023-03-29T22:42:47.100Z,10.25
2023-03-29T22:45:26.887Z,10.25
2023-03-29T22:48:03.320Z,10.23
2023-03-29T22:50:43.038Z,10.21
2023-03-29T22:53:28.239Z,10.12
2023-03-29T22:56:08.424Z,10.18
2023-03-29T22:58:49.286Z,10.19
2023-03-29T23:01:30.699Z,10.17
2023-03-29T23:04:02.985Z,10.13
2023-03-29T23:06:46.413Z,10.10
2023-03-29T23:09:31.726Z,10.10
2023-03-29T23:12:13.563Z,10.11
2023-03-29T23:15:08.506Z,10.09
2023-03-29T23:17:45.221Z,10.09
2023-03-29T23:20:22.626Z,10.10
2023-03-29T23:23:11.501Z,10.11
2023-03-29T23:25:50.345Z,9.94
2023-03-29T23:28:39.445Z,10.09
2023-03-29T23:31:24.824Z,10.09
2023-03-29T23:34:03.356Z,10.11
2023-03-29T23:36:48.917Z,10.04
2023-03-29T23:39:29.815Z,10.09
2023-03-29T23:42:05.676Z,10.10
2023-03-29T23:44:47.725Z,10.09
2023-03-29T23:47:33.418Z,10.10
2023-03-29T23:50:10.889Z,10.08
2023-03-29T23:52:51.728Z,10.10
2023-03-29T23:55:36.785Z,10.11
2023-03-29T23:58:17.331Z,10.10
